Time;durP1;ratioP1;P1;durP2;ratioP2;P2;SDS_P1;SDS_P2;PMS_P1;PMS_P2;Temp;Humidity;BMP_temperature;BMP_pressure;BME280_temperature;BME280_humidity;BME280_pressure;Samples;Min_cycle;Max_cycle;Signal;HPM_P1;HPM_P2
2022/12/01 00:01:13;;;;;;;35.60;17.37;;;;;;;;;;5009804;28;20434;-72
2022/12/01 00:03:40;;;;;;;36.40;18.27;;;;;;;;;;5017997;28;20437;-72
2022/12/01 00:06:10;;;;;;;36.27;16.73;;;;;;;;;;5050873;28;20932;-73
2022/12/01 00:08:36;;;;;;;32.93;17.13;;;;;;;;;;5050774;28;20476;-72
2022/12/01 00:11:05;;;;;;;34.63;17.77;;;;;;;;;;5050802;28;20422;-72
2022/12/01 00:13:31;;;;;;;33.90;17.03;;;;;;;;;;5050862;28;20433;-72
2022/12/01 00:16:07;;;;;;;32.53;16.97;;;;;;;;;;4999476;28;20447;-72
2022/12/01 00:18:52;;;;;;;33.63;17.03;;;;;;;;;;5020137;28;20432;-72
2022/12/01 00:21:21;;;;;;;35.87;17.93;;;;;;;;;;5013339;28;20528;-72
2022/12/01 00:24:05;;;;;;;38.80;18.50;;;;;;;;;;5030842;28;20422;-72
2022/12/01 00:26:32;;;;;;;33.77;17.20;;;;;;;;;;4996694;28;20424;-73
2022/12/01 00:29:16;;;;;;;33.70;18.23;;;;;;;;;;5030557;28;20469;-72
2022/12/01 00:31:42;;;;;;;35.37;17.87;;;;;;;;;;5030805;28;20432;-72
2022/12/01 00:34:12;;;;;;;34.73;17.20;;;;;;;;;;5030866;28;20440;-73
2022/12/01 00:36:39;;;;;;;29.10;15.83;;;;;;;;;;5012746;28;20460;-73
2022/12/01 00:39:06;;;;;;;29.63;15.70;;;;;;;;;;5020078;28;20517;-73
2022/12/01 00:41:33;;;;;;;26.93;15.17;;;;;;;;;;5031056;28;20461;-73
2022/12/01 00:43:59;;;;;;;30.97;15.50;;;;;;;;;;5050730;28;20429;-73
2022/12/01 00:46:26;;;;;;;28.90;15.73;;;;;;;;;;5050348;28;21047;-73
2022/12/01 00:48:52;;;;;;;28.43;15.03;;;;;;;;;;5050114;28;20616;-73
2022/12/01 00:51:19;;;;;;;28.23;16.00;;;;;;;;;;5032445;28;20967;-73
2022/12/01 00:53:45;;;;;;;29.30;14.80;;;;;;;;;;5033304;28;20498;-73
2022/12/01 00:56:12;;;;;;;25.87;14.30;;;;;;;;;;5029801;28;21021;-73
2022/12/01 00:58:39;;;;;;;28.13;14.53;;;;;;;;;;5030624;28;20435;-73
2022/12/01 01:01:05;;;;;;;30.60;15.03;;;;;;;;;;5007215;28;20570;-73
2022/12/01 01:03:32;;;;;;;23.93;14.13;;;;;;;;;;5010101;28;20507;-73
2022/12/01 01:06:05;;;;;;;26.10;14.27;;;;;;;;;;4993059;28;20442;-73
2022/12/01 01:08:32;;;;;;;26.37;14.93;;;;;;;;;;5010172;28;20463;-73
2022/12/01 01:10:59;;;;;;;25.40;14.83;;;;;;;;;;5028033;28;20472;-73
2022/12/01 01:13:25;;;;;;;27.47;14.80;;;;;;;;;;5045075;28;20431;-73
2022/12/01 01:15:59;;;;;;;24.87;13.73;;;;;;;;;;5049316;28;20437;-73
2022/12/01 01:18:25;;;;;;;26.73;14.40;;;;;;;;;;5023414;28;20508;-73
2022/12/01 01:20:55;;;;;;;24.83;13.73;;;;;;;;;;5029421;28;20414;-73
2022/12/01 01:23:22;;;;;;;23.67;13.30;;;;;;;;;;5011917;28;20530;-73
2022/12/01 01:25:49;;;;;;;26.70;14.30;;;;;;;;;;5029108;28;20434;-73
2022/12/01 01:28:15;;;;;;;22.67;14.23;;;;;;;;;;4992374;28;20471;-73
2022/12/01 01:30:42;;;;;;;24.97;14.50;;;;;;;;;;4992487;28;20629;-73
2022/12/01 01:33:09;;;;;;;22.50;13.37;;;;;;;;;;5009745;28;20445;-73
2022/12/01 01:35:35;;;;;;;22.77;13.30;;;;;;;;;;5009282;28;21017;-73
2022/12/01 01:38:02;;;;;;;24.40;13.77;;;;;;;;;;5009760;28;20933;-73
2022/12/01 01:40:31;;;;;;;24.47;13.20;;;;;;;;;;5026570;28;20474;-73
2022/12/01 01:42:58;;;;;;;24.83;13.40;;;;;;;;;;4995601;28;20957;-73
2022/12/01 01:45:26;;;;;;;25.20;13.70;;;;;;;;;;5029235;28;20513;-73
2022/12/01 01:47:53;;;;;;;22.40;12.90;;;;;;;;;;5011427;28;20452;-73
2022/12/01 01:50:21;;;;;;;21.97;12.93;;;;;;;;;;5010493;28;20874;-73
2022/12/01 01:52:50;;;;;;;22.87;13.03;;;;;;;;;;5010964;28;20932;-73
2022/12/01 01:55:17;;;;;;;20.50;12.80;;;;;;;;;;5010512;28;20539;-73
2022/12/01 01:57:43;;;;;;;21.60;12.30;;;;;;;;;;4995380;28;20447;-73
2022/12/01 02:00:11;;;;;;;22.30;12.43;;;;;;;;;;4994798;28;20426;-73
2022/12/01 02:02:39;;;;;;;22.03;12.70;;;;;;;;;;5011725;28;20490;-73
2022/12/01 02:05:09;;;;;;;21.60;13.03;;;;;;;;;;5010733;28;20516;-73
2022/12/01 02:07:37;;;;;;;22.60;12.93;;;;;;;;;;5012200;28;20809;-73
2022/12/01 02:10:04;;;;;;;21.13;12.00;;;;;;;;;;5027262;28;20484;-73
2022/12/01 02:12:46;;;;;;;20.17;12.90;;;;;;;;;;5011913;28;20858;-73
2022/12/01 02:15:28;;;;;;;20.87;11.47;;;;;;;;;;5011488;28;21252;-73
2022/12/01 02:18:04;;;;;;;20.30;12.47;;;;;;;;;;5026538;28;20801;-73
2022/12/01 02:20:39;;;;;;;21.53;12.87;;;;;;;;;;5028404;28;20499;-73
2022/12/01 02:23:25;;;;;;;21.60;12.80;;;;;;;;;;5025462;28;20510;-73
2022/12/01 02:25:57;;;;;;;21.03;12.23;;;;;;;;;;5026927;28;20456;-73
2022/12/01 02:28:27;;;;;;;19.87;11.50;;;;;;;;;;5007074;28;20525;-73
2022/12/01 02:31:14;;;;;;;23.10;12.37;;;;;;;;;;5011395;28;20611;-73
2022/12/01 02:33:42;;;;;;;18.43;11.80;;;;;;;;;;5028494;28;20528;-73
2022/12/01 02:36:37;;;;;;;17.80;11.63;;;;;;;;;;5011516;28;20442;-73
2022/12/01 02:39:12;;;;;;;20.47;12.13;;;;;;;;;;5026990;28;20452;-73
2022/12/01 02:41:41;;;;;;;20.93;12.23;;;;;;;;;;5027971;28;20514;-73
2022/12/01 02:44:19;;;;;;;18.77;11.77;;;;;;;;;;5027960;28;20434;-73
2022/12/01 02:46:47;;;;;;;19.03;12.27;;;;;;;;;;5009919;28;20511;-73
2022/12/01 02:49:15;;;;;;;18.87;11.30;;;;;;;;;;5010937;28;21314;-73
2022/12/01 02:51:45;;;;;;;18.63;11.37;;;;;;;;;;4994031;28;20539;-73
2022/12/01 02:54:12;;;;;;;18.57;11.63;;;;;;;;;;4994550;28;20446;-73
2022/12/01 02:56:39;;;;;;;20.27;11.60;;;;;;;;;;4995662;28;20457;-73
2022/12/01 02:59:09;;;;;;;19.23;11.47;;;;;;;;;;5006835;28;20467;-73
2022/12/01 03:01:49;;;;;;;20.00;12.17;;;;;;;;;;5026750;28;20486;-73
2022/12/01 03:04:16;;;;;;;21.77;12.30;;;;;;;;;;5026624;28;20450;-73
2022/12/01 03:06:49;;;;;;;19.53;11.70;;;;;;;;;;5026373;28;20445;-73
2022/12/01 03:09:26;;;;;;;21.67;13.23;;;;;;;;;;5022396;28;20528;-73
2022/12/01 03:11:52;;;;;;;21.20;12.60;;;;;;;;;;5009043;28;20496;-73
2022/12/01 03:14:22;;;;;;;18.73;11.90;;;;;;;;;;5026695;28;20467;-73
2022/12/01 03:16:52;;;;;;;17.87;10.93;;;;;;;;;;5008893;28;20772;-73
2022/12/01 03:19:21;;;;;;;17.60;11.03;;;;;;;;;;4994051;28;20971;-73
2022/12/01 03:22:13;;;;;;;18.87;10.63;;;;;;;;;;5025007;28;20548;-73
2022/12/01 03:24:57;;;;;;;18.97;10.63;;;;;;;;;;5025391;28;20789;-73
2022/12/01 03:27:26;;;;;;;15.27;9.90;;;;;;;;;;5007788;28;20447;-73
2022/12/01 03:29:53;;;;;;;17.57;10.23;;;;;;;;;;4992293;28;20491;-73
2022/12/01 03:32:24;;;;;;;17.50;10.67;;;;;;;;;;5009102;28;21055;-73
2022/12/01 03:34:59;;;;;;;17.57;10.73;;;;;;;;;;5008059;28;20536;-74
2022/12/01 03:37:48;;;;;;;19.23;11.23;;;;;;;;;;5014806;28;20528;-72
2022/12/01 03:40:16;;;;;;;18.00;11.30;;;;;;;;;;5010480;28;20976;-72
2022/12/01 03:42:45;;;;;;;17.97;11.63;;;;;;;;;;5010366;28;20535;-72
2022/12/01 03:45:14;;;;;;;17.43;10.57;;;;;;;;;;4997357;28;20455;-73
2022/12/01 03:47:40;;;;;;;20.47;11.33;;;;;;;;;;4993878;28;20500;-72
2022/12/01 03:50:10;;;;;;;19.63;10.90;;;;;;;;;;5011559;28;20535;-73
2022/12/01 03:52:40;;;;;;;19.37;11.70;;;;;;;;;;5012990;28;20489;-73
2022/12/01 03:55:10;;;;;;;18.50;11.57;;;;;;;;;;5030173;28;20458;-72
2022/12/01 03:57:40;;;;;;;18.93;11.27;;;;;;;;;;5012187;28;20456;-72
2022/12/01 04:00:07;;;;;;;17.23;10.60;;;;;;;;;;5012168;28;20454;-72
2022/12/01 04:02:37;;;;;;;18.30;10.70;;;;;;;;;;5013126;28;20454;-72
2022/12/01 04:05:04;;;;;;;17.23;10.43;;;;;;;;;;5012321;28;20506;-72
2022/12/01 04:07:31;;;;;;;18.03;10.60;;;;;;;;;;5009585;28;20494;-72
2022/12/01 04:09:57;;;;;;;16.23;9.97;;;;;;;;;;5030701;28;20477;-72
2022/12/01 04:12:31;;;;;;;16.20;10.03;;;;;;;;;;5036121;28;20532;-72
2022/12/01 04:15:16;;;;;;;17.63;10.30;;;;;;;;;;5033060;28;20452;-72
2022/12/01 04:17:43;;;;;;;20.60;11.97;;;;;;;;;;5011936;28;21040;-72
2022/12/01 04:20:27;;;;;;;16.80;10.37;;;;;;;;;;5014807;28;20438;-72
2022/12/01 04:22:53;;;;;;;18.33;11.10;;;;;;;;;;5010350;28;20451;-72
2022/12/01 04:25:20;;;;;;;20.37;11.30;;;;;;;;;;5029952;28;20442;-72
2022/12/01 04:27:47;;;;;;;18.03;11.03;;;;;;;;;;5029159;28;20488;-72
2022/12/01 04:30:14;;;;;;;18.43;11.73;;;;;;;;;;5011430;28;20485;-72
2022/12/01 04:32:41;;;;;;;16.70;10.73;;;;;;;;;;5029791;28;20458;-72
2022/12/01 04:35:09;;;;;;;17.33;11.10;;;;;;;;;;5011847;28;20516;-72
2022/12/01 04:37:35;;;;;;;18.73;11.67;;;;;;;;;;5011555;28;20989;-72
2022/12/01 04:40:02;;;;;;;18.50;11.80;;;;;;;;;;4992624;28;20473;-73
2022/12/01 04:42:29;;;;;;;18.03;11.47;;;;;;;;;;5019072;28;20566;-73
2022/12/01 04:44:55;;;;;;;18.60;12.27;;;;;;;;;;5011170;28;20468;-73
2022/12/01 04:47:22;;;;;;;17.47;11.30;;;;;;;;;;5012777;28;20469;-73
2022/12/01 04:49:48;;;;;;;16.93;11.53;;;;;;;;;;5029379;28;20564;-73
2022/12/01 04:52:15;;;;;;;19.13;12.37;;;;;;;;;;5028928;28;20442;-72
2022/12/01 04:54:42;;;;;;;20.93;12.03;;;;;;;;;;5028953;28;20461;-73
2022/12/01 04:57:09;;;;;;;19.00;11.87;;;;;;;;;;5027678;28;20778;-72
2022/12/01 04:59:35;;;;;;;18.83;11.50;;;;;;;;;;5024665;28;20439;-72
2022/12/01 05:02:02;;;;;;;17.00;10.57;;;;;;;;;;5028434;28;20539;-73
2022/12/01 05:04:32;;;;;;;17.20;10.27;;;;;;;;;;5006059;28;21145;-73
2022/12/01 05:06:59;;;;;;;17.10;10.90;;;;;;;;;;5011963;28;20450;-74
2022/12/01 05:09:26;;;;;;;14.73;9.43;;;;;;;;;;5033011;28;20484;-73
2022/12/01 05:11:53;;;;;;;17.30;10.30;;;;;;;;;;5028572;28;20482;-73
2022/12/01 05:14:19;;;;;;;17.00;10.67;;;;;;;;;;5029450;28;20524;-74
2022/12/01 05:17:05;;;;;;;15.03;9.87;;;;;;;;;;5014805;28;21389;-70
2022/12/01 05:22:17;;;;;;;16.23;10.13;;;;;;;;;;5034989;28;20459;-69
2022/12/01 05:25:04;;;;;;;16.37;9.40;;;;;;;;;;5010610;28;20576;-70
2022/12/01 05:27:30;;;;;;;18.57;10.03;;;;;;;;;;5014161;28;20500;-70
2022/12/01 05:29:57;;;;;;;19.23;10.80;;;;;;;;;;5016216;28;20491;-69
2022/12/01 05:32:24;;;;;;;19.67;10.57;;;;;;;;;;5028184;28;20841;-72
2022/12/01 05:34:51;;;;;;;18.73;10.43;;;;;;;;;;5035207;28;20858;-73
2022/12/01 05:37:18;;;;;;;16.70;9.70;;;;;;;;;;5028021;28;20450;-74
2022/12/01 05:39:44;;;;;;;17.07;10.33;;;;;;;;;;5026110;28;20465;-75
2022/12/01 05:42:11;;;;;;;17.57;9.83;;;;;;;;;;5031179;28;20532;-74
2022/12/01 05:44:38;;;;;;;17.77;10.40;;;;;;;;;;5030006;28;20449;-75
2022/12/01 05:47:05;;;;;;;18.07;10.67;;;;;;;;;;5030697;28;21090;-75
2022/12/01 05:49:49;;;;;;;17.83;9.23;;;;;;;;;;5000122;28;20461;-75
2022/12/01 05:52:16;;;;;;;13.67;8.57;;;;;;;;;;5013640;28;20544;-75
2022/12/01 05:55:00;;;;;;;16.57;10.30;;;;;;;;;;5029765;28;20506;-75
2022/12/01 05:57:27;;;;;;;16.30;10.63;;;;;;;;;;4993644;28;20542;-75
2022/12/01 05:59:55;;;;;;;17.70;10.43;;;;;;;;;;5019705;28;20462;-75
2022/12/01 06:02:22;;;;;;;18.30;11.03;;;;;;;;;;5006470;28;20451;-74
2022/12/01 06:04:50;;;;;;;18.37;10.70;;;;;;;;;;5026859;28;20431;-74
2022/12/01 06:07:17;;;;;;;16.50;10.50;;;;;;;;;;5031428;28;20435;-74
2022/12/01 06:09:45;;;;;;;16.13;10.50;;;;;;;;;;5031316;28;20521;-77
2022/12/01 06:12:12;;;;;;;18.90;10.63;;;;;;;;;;4989777;28;20467;-76
2022/12/01 06:14:38;;;;;;;18.77;10.30;;;;;;;;;;5013744;28;20495;-75
2022/12/01 06:17:05;;;;;;;16.97;10.53;;;;;;;;;;5030944;28;21278;-74
2022/12/01 06:19:32;;;;;;;16.67;9.90;;;;;;;;;;5016669;28;20453;-70
2022/12/01 06:21:59;;;;;;;16.27;10.50;;;;;;;;;;5021937;28;20450;-70
2022/12/01 06:24:25;;;;;;;19.13;11.30;;;;;;;;;;5030331;28;21260;-73
2022/12/01 06:26:52;;;;;;;19.53;11.40;;;;;;;;;;5023067;28;20518;-71
2022/12/01 06:29:21;;;;;;;17.60;10.50;;;;;;;;;;5041298;28;20696;-71
2022/12/01 06:31:50;;;;;;;15.70;10.47;;;;;;;;;;4995582;28;21032;-70
2022/12/01 06:34:19;;;;;;;16.43;10.37;;;;;;;;;;5029822;28;20427;-70
2022/12/01 06:36:46;;;;;;;16.87;10.43;;;;;;;;;;5012353;28;20481;-70
2022/12/01 06:39:13;;;;;;;13.77;9.03;;;;;;;;;;5016363;28;20447;-71
2022/12/01 06:41:40;;;;;;;15.83;9.33;;;;;;;;;;5008772;28;20460;-70
2022/12/01 06:44:07;;;;;;;15.97;9.40;;;;;;;;;;5008659;28;20447;-70
2022/12/01 06:46:34;;;;;;;15.33;9.70;;;;;;;;;;5013032;28;20482;-74
2022/12/01 06:49:01;;;;;;;14.53;9.13;;;;;;;;;;4987350;28;20449;-74
2022/12/01 06:51:29;;;;;;;16.57;9.50;;;;;;;;;;4991253;28;20431;-73
2022/12/01 06:53:56;;;;;;;15.90;9.83;;;;;;;;;;5040721;28;20433;-76
2022/12/01 06:56:33;;;;;;;15.77;9.77;;;;;;;;;;5025112;28;21387;-73
2022/12/01 06:59:00;;;;;;;16.33;9.40;;;;;;;;;;5009295;28;20995;-73
2022/12/01 07:01:27;;;;;;;16.23;9.93;;;;;;;;;;5018464;28;20443;-73
2022/12/01 07:03:54;;;;;;;16.10;10.13;;;;;;;;;;5027693;28;21004;-75
2022/12/01 07:06:21;;;;;;;15.33;9.27;;;;;;;;;;5026508;28;21002;-75
2022/12/01 07:08:48;;;;;;;16.30;10.17;;;;;;;;;;5041246;28;20489;-73
2022/12/01 07:11:15;;;;;;;16.47;9.80;;;;;;;;;;5017025;28;20516;-75
2022/12/01 07:13:59;;;;;;;16.53;9.87;;;;;;;;;;5042151;28;20549;-75
2022/12/01 07:16:25;;;;;;;16.07;9.80;;;;;;;;;;5016703;28;20586;-68
2022/12/01 07:18:52;;;;;;;20.23;11.93;;;;;;;;;;5031801;28;20442;-73
2022/12/01 07:21:19;;;;;;;22.60;13.17;;;;;;;;;;5047371;28;20421;-74
2022/12/01 07:23:46;;;;;;;16.53;10.00;;;;;;;;;;5012998;28;21342;-70
2022/12/01 07:26:14;;;;;;;16.57;9.53;;;;;;;;;;5024487;28;21313;-70
2022/12/01 07:28:41;;;;;;;17.17;10.33;;;;;;;;;;5048905;28;20442;-70
2022/12/01 07:31:11;;;;;;;20.83;12.37;;;;;;;;;;5031321;28;20477;-71
2022/12/01 07:33:38;;;;;;;21.47;12.27;;;;;;;;;;5002592;28;21021;-74
2022/12/01 07:36:12;;;;;;;46.27;20.37;;;;;;;;;;5049207;28;20425;-71
2022/12/01 07:38:39;;;;;;;39.70;19.47;;;;;;;;;;4997574;28;20442;-74
2022/12/01 07:41:07;;;;;;;21.63;12.73;;;;;;;;;;5048264;28;20464;-71
2022/12/01 07:43:34;;;;;;;18.53;12.03;;;;;;;;;;5030718;28;20978;-72
2022/12/01 07:46:23;;;;;;;17.07;10.70;;;;;;;;;;5048469;28;20445;-71
2022/12/01 07:48:50;;;;;;;15.40;10.40;;;;;;;;;;5008102;28;20450;-71
2022/12/01 07:51:17;;;;;;;18.47;10.83;;;;;;;;;;5023033;28;20475;-70
2022/12/01 07:53:44;;;;;;;19.03;10.77;;;;;;;;;;5014482;28;20486;-71
2022/12/01 07:56:28;;;;;;;16.93;10.40;;;;;;;;;;5031602;28;20479;-70
2022/12/01 07:58:55;;;;;;;19.60;12.07;;;;;;;;;;5025830;28;20524;-72
2022/12/01 08:01:22;;;;;;;19.77;11.53;;;;;;;;;;5048081;28;20447;-72
2022/12/01 08:03:49;;;;;;;19.87;11.60;;;;;;;;;;5048881;28;21167;-71
2022/12/01 08:06:16;;;;;;;18.40;11.57;;;;;;;;;;5028575;28;20451;-72
2022/12/01 08:08:42;;;;;;;18.67;11.03;;;;;;;;;;5033575;28;20458;-69
2022/12/01 08:11:13;;;;;;;17.23;11.63;;;;;;;;;;5024317;28;20465;-70
2022/12/01 08:13:40;;;;;;;17.90;11.20;;;;;;;;;;5017876;28;20441;-74
2022/12/01 08:16:07;;;;;;;19.30;11.47;;;;;;;;;;5042883;28;20519;-70
2022/12/01 08:18:34;;;;;;;20.33;12.63;;;;;;;;;;5032604;28;20544;-71
2022/12/01 08:21:01;;;;;;;22.23;13.40;;;;;;;;;;5029474;28;20444;-75
2022/12/01 08:23:28;;;;;;;19.17;12.37;;;;;;;;;;4986787;28;20468;-76
2022/12/01 08:25:56;;;;;;;23.37;13.50;;;;;;;;;;5018909;28;20966;-74
2022/12/01 08:28:23;;;;;;;25.70;14.73;;;;;;;;;;5029822;28;20927;-74
2022/12/01 08:30:50;;;;;;;25.53;13.70;;;;;;;;;;5032240;28;21187;-72
2022/12/01 08:33:17;;;;;;;21.87;13.17;;;;;;;;;;5029974;28;20500;-75
2022/12/01 08:35:44;;;;;;;22.03;13.10;;;;;;;;;;5028924;28;20439;-75
2022/12/01 08:38:11;;;;;;;19.73;11.93;;;;;;;;;;5034972;28;20899;-75
2022/12/01 08:40:38;;;;;;;22.83;12.73;;;;;;;;;;5029698;28;20441;-75
2022/12/01 08:43:05;;;;;;;21.33;12.57;;;;;;;;;;5047496;28;20491;-74
2022/12/01 08:45:32;;;;;;;20.60;12.83;;;;;;;;;;5021943;28;20430;-74
2022/12/01 08:47:59;;;;;;;19.30;12.53;;;;;;;;;;5035322;28;20948;-72
2022/12/01 08:50:26;;;;;;;20.63;12.20;;;;;;;;;;5028155;28;20470;-72
2022/12/01 08:52:55;;;;;;;16.77;11.23;;;;;;;;;;5010172;28;20447;-71
2022/12/01 08:55:22;;;;;;;15.53;9.60;;;;;;;;;;5017681;28;21163;-73
2022/12/01 08:57:48;;;;;;;14.77;9.20;;;;;;;;;;5024505;28;20439;-73
2022/12/01 09:00:20;;;;;;;13.57;8.67;;;;;;;;;;5048551;28;20441;-73
2022/12/01 09:02:49;;;;;;;11.50;7.33;;;;;;;;;;5026472;28;20441;-74
2022/12/01 09:05:16;;;;;;;14.60;7.53;;;;;;;;;;5035364;28;20452;-73
2022/12/01 09:10:49;;;;;;;16.03;8.97;;;;;;;;;;5033262;28;20494;-73
2022/12/01 09:13:34;;;;;;;18.60;11.03;;;;;;;;;;5024938;28;20429;-73
2022/12/01 09:16:04;;;;;;;13.73;7.73;;;;;;;;;;5023844;28;20444;-73
2022/12/01 09:18:31;;;;;;;14.57;9.20;;;;;;;;;;5022963;28;20441;-70
2022/12/01 09:20:57;;;;;;;13.23;7.90;;;;;;;;;;5023110;28;20522;-70
2022/12/01 09:23:24;;;;;;;16.87;9.40;;;;;;;;;;5027979;28;20447;-69
2022/12/01 09:26:08;;;;;;;14.17;8.57;;;;;;;;;;5031375;28;20433;-70
2022/12/01 09:28:39;;;;;;;15.60;8.87;;;;;;;;;;5029003;28;20449;-70
2022/12/01 09:31:23;;;;;;;17.33;9.87;;;;;;;;;;5028047;28;20458;-70
2022/12/01 09:33:54;;;;;;;11.77;6.23;;;;;;;;;;5048749;28;20437;-70
2022/12/01 09:36:21;;;;;;;9.63;6.13;;;;;;;;;;5026641;28;20445;-70
2022/12/01 09:38:47;;;;;;;11.60;6.13;;;;;;;;;;5007218;28;20501;-69
2022/12/01 09:41:25;;;;;;;10.10;6.47;;;;;;;;;;5042691;28;20481;-70
2022/12/01 09:43:57;;;;;;;9.67;6.37;;;;;;;;;;5026568;28;20443;-69
2022/12/01 09:46:25;;;;;;;9.17;6.37;;;;;;;;;;5025838;28;20977;-70
2022/12/01 09:48:52;;;;;;;15.00;9.07;;;;;;;;;;5029464;28;21048;-70
2022/12/01 09:51:19;;;;;;;12.93;8.17;;;;;;;;;;5029911;28;20466;-69
2022/12/01 09:53:50;;;;;;;12.20;7.97;;;;;;;;;;5035425;28;20476;-70
2022/12/01 09:56:21;;;;;;;10.20;6.87;;;;;;;;;;5012208;28;20428;-70
2022/12/01 09:58:51;;;;;;;10.97;7.13;;;;;;;;;;5006023;28;20441;-70
2022/12/01 10:01:36;;;;;;;12.97;7.97;;;;;;;;;;5007098;28;20424;-72
2022/12/01 10:04:18;;;;;;;12.37;7.90;;;;;;;;;;5026960;28;20432;-73
2022/12/01 10:06:50;;;;;;;14.13;7.30;;;;;;;;;;5028295;28;20453;-72
2022/12/01 10:09:17;;;;;;;10.27;7.27;;;;;;;;;;5004879;28;20438;-73
2022/12/01 10:11:44;;;;;;;9.67;6.60;;;;;;;;;;5025202;28;20553;-73
2022/12/01 10:14:13;;;;;;;11.13;7.03;;;;;;;;;;5017805;28;20446;-74
2022/12/01 10:16:55;;;;;;;11.47;7.13;;;;;;;;;;5008791;28;20461;-75
2022/12/01 10:19:31;;;;;;;10.77;7.17;;;;;;;;;;5034871;28;20437;-72
2022/12/01 10:21:58;;;;;;;11.57;7.07;;;;;;;;;;5028287;28;20437;-71
2022/12/01 10:24:31;;;;;;;10.43;6.73;;;;;;;;;;5028122;28;20433;-70
2022/12/01 10:26:58;;;;;;;11.13;6.77;;;;;;;;;;5036875;28;20454;-71
2022/12/01 10:29:43;;;;;;;12.03;6.97;;;;;;;;;;5029226;28;20504;-70
2022/12/01 10:32:16;;;;;;;13.50;6.87;;;;;;;;;;5042482;28;20480;-71
2022/12/01 10:34:45;;;;;;;13.03;7.33;;;;;;;;;;5029009;28;20463;-73
2022/12/01 10:37:22;;;;;;;13.10;7.23;;;;;;;;;;4997130;28;20453;-76
2022/12/01 10:39:50;;;;;;;10.90;6.53;;;;;;;;;;5040489;28;20952;-72
2022/12/01 10:42:44;;;;;;;10.40;6.97;;;;;;;;;;5029995;28;20460;-72
2022/12/01 10:45:37;;;;;;;12.33;7.37;;;;;;;;;;5027818;28;20444;-73
2022/12/01 10:48:33;;;;;;;13.77;7.67;;;;;;;;;;5041323;28;21114;-73
2022/12/01 10:51:21;;;;;;;12.63;7.37;;;;;;;;;;5027075;28;20576;-73
2022/12/01 10:53:48;;;;;;;11.47;7.20;;;;;;;;;;5000112;28;21002;-73
2022/12/01 10:56:15;;;;;;;11.57;7.80;;;;;;;;;;5045511;28;20457;-70
2022/12/01 10:58:45;;;;;;;10.17;7.13;;;;;;;;;;5019276;28;20858;-72
2022/12/01 11:01:34;;;;;;;11.00;7.30;;;;;;;;;;5028260;28;20429;-71
2022/12/01 11:04:05;;;;;;;12.00;7.60;;;;;;;;;;5027373;28;21096;-71
2022/12/01 11:06:32;;;;;;;11.77;7.70;;;;;;;;;;5027460;28;20477;-72
2022/12/01 11:09:03;;;;;;;13.40;7.47;;;;;;;;;;5027506;28;20429;-72
2022/12/01 11:11:34;;;;;;;11.77;7.50;;;;;;;;;;5023559;28;20481;-71
2022/12/01 11:14:01;;;;;;;13.23;7.87;;;;;;;;;;5018960;28;20441;-69
2022/12/01 11:16:33;;;;;;;15.30;8.67;;;;;;;;;;5026733;28;20434;-70
2022/12/01 11:19:06;;;;;;;14.50;8.70;;;;;;;;;;5026403;28;20516;-70
2022/12/01 11:21:33;;;;;;;16.97;8.57;;;;;;;;;;5026243;28;21227;-70
2022/12/01 11:24:00;;;;;;;12.20;7.30;;;;;;;;;;5044438;28;20518;-73
2022/12/01 11:26:31;;;;;;;10.37;6.93;;;;;;;;;;5015323;28;20458;-70
2022/12/01 11:28:58;;;;;;;10.07;6.90;;;;;;;;;;5026559;28;20449;-69
2022/12/01 11:31:35;;;;;;;11.07;6.10;;;;;;;;;;5045157;28;20471;-69
2022/12/01 11:34:02;;;;;;;10.90;5.57;;;;;;;;;;5024110;28;21097;-72
2022/12/01 11:36:35;;;;;;;9.77;5.70;;;;;;;;;;5007191;28;20500;-72
2022/12/01 11:39:02;;;;;;;11.03;6.23;;;;;;;;;;5026919;28;20532;-71
2022/12/01 11:41:31;;;;;;;10.20;5.97;;;;;;;;;;5044180;28;20473;-74
2022/12/01 11:43:59;;;;;;;10.17;6.37;;;;;;;;;;5008282;28;20568;-77
2022/12/01 11:46:28;;;;;;;10.93;6.37;;;;;;;;;;5039475;28;20516;-74
2022/12/01 11:48:56;;;;;;;11.43;5.73;;;;;;;;;;5019346;28;20445;-72
2022/12/01 11:51:22;;;;;;;9.60;6.10;;;;;;;;;;5026761;28;20586;-74
2022/12/01 11:53:49;;;;;;;10.23;5.53;;;;;;;;;;5044340;28;20445;-73
2022/12/01 11:56:22;;;;;;;9.83;6.10;;;;;;;;;;5009540;28;21935;-73
2022/12/01 11:58:50;;;;;;;9.17;5.30;;;;;;;;;;4998698;28;21150;-72
2022/12/01 12:01:35;;;;;;;10.60;6.50;;;;;;;;;;5024059;28;20838;-71
2022/12/01 12:04:21;;;;;;;9.83;6.07;;;;;;;;;;5023496;28;20456;-75
2022/12/01 12:07:05;;;;;;;11.03;6.37;;;;;;;;;;5048222;28;20537;-72
2022/12/01 12:09:36;;;;;;;11.73;6.80;;;;;;;;;;5049113;28;20789;-73
2022/12/01 12:12:29;;;;;;;9.47;5.80;;;;;;;;;;5032206;28;20511;-77
2022/12/01 12:15:16;;;;;;;9.73;5.80;;;;;;;;;;5038004;28;20536;-72
2022/12/01 12:17:48;;;;;;;10.23;6.43;;;;;;;;;;4998874;28;20488;-72
2022/12/01 12:20:15;;;;;;;10.47;6.73;;;;;;;;;;5006228;28;20454;-72
2022/12/01 12:22:47;;;;;;;11.63;6.33;;;;;;;;;;5028678;28;20426;-72
2022/12/01 12:25:27;;;;;;;8.43;5.83;;;;;;;;;;5029843;28;20444;-71
2022/12/01 12:28:03;;;;;;;8.77;5.40;;;;;;;;;;5048353;28;20422;-72
2022/12/01 12:30:30;;;;;;;8.33;5.33;;;;;;;;;;5037608;28;20479;-74
2022/12/01 12:33:16;;;;;;;9.30;5.60;;;;;;;;;;5029433;28;20531;-74
2022/12/01 12:35:44;;;;;;;8.83;5.63;;;;;;;;;;5027759;28;20454;-74
2022/12/01 12:38:24;;;;;;;9.87;5.80;;;;;;;;;;5007777;28;20466;-72
2022/12/01 12:41:14;;;;;;;7.20;4.23;;;;;;;;;;5013264;28;21257;-75
2022/12/01 12:43:41;;;;;;;5.60;3.73;;;;;;;;;;5038179;28;20452;-75
2022/12/01 12:46:12;;;;;;;7.87;4.33;;;;;;;;;;5046168;28;20425;-75
2022/12/01 12:48:51;;;;;;;6.73;3.90;;;;;;;;;;5041926;28;20442;-74
2022/12/01 12:51:39;;;;;;;5.93;4.03;;;;;;;;;;5042142;28;20555;-73
2022/12/01 12:54:05;;;;;;;7.73;4.77;;;;;;;;;;5033691;28;20451;-72
2022/12/01 12:56:32;;;;;;;6.50;4.00;;;;;;;;;;5047307;28;20815;-73
2022/12/01 12:59:00;;;;;;;8.60;4.70;;;;;;;;;;5012933;28;20879;-70
2022/12/01 13:01:28;;;;;;;8.30;4.43;;;;;;;;;;5018579;28;20573;-72
2022/12/01 13:03:56;;;;;;;6.03;4.13;;;;;;;;;;5009029;28;20512;-75
2022/12/01 13:06:35;;;;;;;6.73;3.80;;;;;;;;;;5023423;28;20499;-76
2022/12/01 13:09:05;;;;;;;8.33;4.33;;;;;;;;;;5041894;28;20443;-71
2022/12/01 13:11:35;;;;;;;8.33;4.80;;;;;;;;;;5017377;28;20515;-72
2022/12/01 13:14:06;;;;;;;11.20;4.90;;;;;;;;;;5010403;28;21324;-68
2022/12/01 13:16:34;;;;;;;8.20;5.23;;;;;;;;;;5029088;28;20446;-67
2022/12/01 13:19:06;;;;;;;8.60;5.10;;;;;;;;;;5028270;28;20445;-69
2022/12/01 13:21:39;;;;;;;8.43;5.20;;;;;;;;;;5046831;28;20544;-70
2022/12/01 13:24:17;;;;;;;8.67;5.23;;;;;;;;;;5027552;28;20816;-69
2022/12/01 13:27:07;;;;;;;10.03;5.07;;;;;;;;;;5029087;28;20490;-68
2022/12/01 13:29:34;;;;;;;12.03;5.60;;;;;;;;;;5040385;28;20664;-70
2022/12/01 13:32:45;;;;;;;9.90;5.80;;;;;;;;;;5016608;28;20467;-68
2022/12/01 13:35:24;;;;;;;8.20;5.13;;;;;;;;;;4996444;28;20485;-68
2022/12/01 13:37:51;;;;;;;9.90;5.77;;;;;;;;;;5011443;28;20448;-69
2022/12/01 13:40:28;;;;;;;7.93;4.90;;;;;;;;;;5042325;28;20459;-69
2022/12/01 13:42:58;;;;;;;9.57;5.67;;;;;;;;;;5027717;28;20560;-69
2022/12/01 13:45:24;;;;;;;9.63;5.60;;;;;;;;;;5044838;28;20447;-70
2022/12/01 13:47:53;;;;;;;11.40;5.07;;;;;;;;;;5027721;28;20477;-71
2022/12/01 13:50:39;;;;;;;10.30;5.50;;;;;;;;;;5019233;28;20445;-69
2022/12/01 13:53:08;;;;;;;8.50;4.83;;;;;;;;;;5018825;28;21365;-71
2022/12/01 13:55:47;;;;;;;10.20;5.60;;;;;;;;;;5005365;28;20454;-68
2022/12/01 13:58:13;;;;;;;11.33;7.20;;;;;;;;;;5015173;28;20446;-73
2022/12/01 14:00:41;;;;;;;9.10;5.27;;;;;;;;;;5046445;28;20521;-72
2022/12/01 14:03:11;;;;;;;19.67;10.97;;;;;;;;;;5040444;28;20445;-70
2022/12/01 14:05:39;;;;;;;22.33;9.40;;;;;;;;;;5013744;28;20432;-71
2022/12/01 14:08:13;;;;;;;15.20;7.77;;;;;;;;;;5027719;28;21185;-72
2022/12/01 14:10:52;;;;;;;16.60;8.07;;;;;;;;;;4977003;28;20493;-73
2022/12/01 14:13:20;;;;;;;18.17;8.80;;;;;;;;;;5011979;28;20429;-74
2022/12/01 14:15:51;;;;;;;16.30;8.67;;;;;;;;;;5045346;28;20440;-75
2022/12/01 14:18:21;;;;;;;26.80;10.60;;;;;;;;;;5027668;28;20437;-74
2022/12/01 14:20:48;;;;;;;24.37;10.73;;;;;;;;;;5027520;28;20441;-71
2022/12/01 14:23:23;;;;;;;24.40;9.47;;;;;;;;;;5022502;28;20955;-71
2022/12/01 14:26:10;;;;;;;20.97;9.80;;;;;;;;;;4997784;28;20542;-70
2022/12/01 14:28:56;;;;;;;22.80;10.70;;;;;;;;;;4996099;28;20448;-71
2022/12/01 14:31:23;;;;;;;21.60;10.73;;;;;;;;;;5027108;28;20563;-71
2022/12/01 14:33:56;;;;;;;26.40;12.47;;;;;;;;;;4999159;28;20922;-72
2022/12/01 14:36:23;;;;;;;25.93;12.63;;;;;;;;;;5013534;28;20444;-71
2022/12/01 14:38:51;;;;;;;26.80;13.07;;;;;;;;;;4997840;28;20441;-71
2022/12/01 14:41:23;;;;;;;23.10;11.87;;;;;;;;;;4995754;28;20477;-70
2022/12/01 14:44:02;;;;;;;21.73;11.07;;;;;;;;;;5030609;28;20937;-71
2022/12/01 14:46:44;;;;;;;26.80;12.10;;;;;;;;;;5013882;28;20430;-72
2022/12/01 14:49:16;;;;;;;49.90;21.37;;;;;;;;;;5031048;28;20455;-72
2022/12/01 14:51:44;;;;;;;40.17;18.43;;;;;;;;;;5018201;28;20913;-71